createdAt,value
2019-05-17T00:04:13.361Z,58.20
2019-05-17T00:12:31.145Z,177.77
2019-05-17T00:20:48.616Z,209.53
2019-05-17T00:29:06.825Z,413.63
2019-05-17T00:37:26.329Z,292.03
2019-05-17T00:45:43.752Z,182.97
2019-05-17T00:54:01.344Z,457.53
2019-05-17T01:02:18.824Z,167.73
2019-05-17T01:10:36.855Z,255.70
2019-05-17T01:18:54.593Z,123.33
2019-05-17T01:27:12.041Z,179.33
2019-05-17T01:35:29.938Z,320.95
2019-05-17T01:43:47.571Z,430.20
2019-05-17T01:52:07.297Z,298.27
2019-05-17T02:00:26.601Z,403.10
2019-05-17T02:08:44.248Z,117.90
2019-05-17T02:17:02.007Z,195.73
2019-05-17T02:25:19.608Z,339.33
2019-05-17T02:33:37.123Z,72.00
2019-05-17T02:41:54.533Z,91.95
2019-05-17T02:50:13.071Z,130.23
2019-05-17T02:58:33.096Z,103.23
2019-05-17T03:06:52.961Z,104.47
2019-05-17T03:15:12.651Z,85.20
2019-05-17T03:23:28.361Z,54.83
2019-05-17T03:31:53.408Z,32.60
2019-05-17T03:40:23.322Z,35.03
2019-05-17T03:48:25.085Z,42.77
2019-05-17T03:56:42.994Z,56.65
2019-05-17T04:05:04.129Z,19.12
2019-05-17T04:13:23.128Z,23.17
2019-05-17T04:21:42.690Z,36.37
2019-05-17T04:29:58.810Z,30.97
2019-05-17T04:38:16.255Z,52.53
2019-05-17T04:46:33.746Z,30.12
2019-05-17T04:54:53.710Z,28.37
2019-05-17T05:03:12.794Z,25.43
2019-05-17T05:11:32.615Z,20.60
2019-05-17T05:19:49.069Z,24.17
2019-05-17T05:28:06.504Z,26.97
2019-05-17T05:36:24.310Z,27.17
2019-05-17T05:44:41.793Z,24.00
2019-05-17T05:53:01.800Z,28.50
2019-05-17T06:01:21.782Z,31.60
2019-05-17T06:09:38.350Z,31.63
2019-05-17T06:17:55.847Z,33.33
2019-05-17T06:26:13.437Z,45.47
2019-05-17T06:34:32.759Z,22.60
2019-05-17T06:42:52.378Z,26.03
2019-05-17T06:51:11.725Z,20.67
2019-05-17T06:59:28.510Z,21.77
2019-05-17T07:07:45.986Z,23.13
2019-05-17T07:16:03.412Z,23.53
2019-05-17T07:24:20.936Z,22.97
2019-05-17T07:32:40.600Z,18.67
2019-05-17T07:40:59.524Z,21.12
2019-05-17T07:49:16.801Z,22.30
2019-05-17T07:57:34.318Z,17.13
2019-05-17T08:05:51.768Z,22.07
2019-05-17T08:14:10.565Z,25.27
2019-05-17T08:22:29.371Z,20.47
2019-05-17T08:30:46.981Z,20.30
2019-05-17T08:39:05.943Z,22.30
2019-05-17T08:47:23.402Z,19.17
2019-05-17T08:55:41.276Z,24.70
2019-05-17T09:03:59.865Z,22.40
2019-05-17T09:12:17.560Z,23.67
2019-05-17T09:20:35.069Z,16.00
2019-05-17T09:28:52.607Z,19.50
2019-05-17T09:37:10.075Z,21.07
2019-05-17T09:45:30.461Z,17.00
2019-05-17T09:53:49.365Z,14.90
2019-05-17T10:02:06.377Z,12.77
2019-05-17T10:11:06.058Z,16.20
2019-05-17T10:19:17.083Z,13.63
2019-05-17T10:27:34.530Z,13.63
2019-05-17T10:35:52.064Z,13.00
2019-05-17T10:44:09.546Z,11.43
2019-05-17T10:52:29.727Z,15.40
2019-05-17T11:00:46.273Z,11.73
2019-05-17T11:09:05.769Z,16.80
2019-05-17T11:17:23.274Z,12.13
2019-05-17T11:25:45.473Z,36.07
2019-05-17T11:34:00.568Z,11.63
2019-05-17T11:42:18.007Z,9.43
2019-05-17T11:50:35.483Z,12.50
2019-05-17T11:58:52.938Z,13.10
2019-05-17T12:07:10.488Z,12.73
2019-05-17T12:15:43.544Z,8.60
2019-05-17T12:23:48.065Z,10.13
2019-05-17T12:32:05.737Z,11.10
2019-05-17T12:40:23.315Z,14.20
2019-05-17T12:48:41.079Z,10.37
2019-05-17T12:56:58.940Z,14.83
2019-05-17T13:05:16.558Z,9.60
2019-05-17T13:13:34.079Z,13.90
2019-05-17T13:21:51.552Z,9.87
2019-05-17T13:30:09.321Z,9.40
2019-05-17T13:38:26.872Z,11.37
2019-05-17T13:46:44.389Z,9.97
2019-05-17T13:55:01.909Z,11.87
2019-05-17T14:03:19.394Z,9.03
2019-05-17T14:11:36.889Z,9.13
2019-05-17T14:19:54.453Z,10.00
2019-05-17T14:28:11.979Z,10.43
2019-05-17T14:36:29.543Z,12.53
2019-05-17T14:44:46.964Z,19.73
2019-05-17T14:53:05.092Z,9.53
2019-05-17T15:01:22.841Z,8.37
2019-05-17T15:09:40.417Z,8.80
2019-05-17T15:17:57.988Z,8.33
2019-05-17T15:26:15.927Z,9.63
2019-05-17T15:34:34.061Z,6.10
2019-05-17T15:42:51.511Z,6.00
2019-05-17T15:51:08.989Z,6.40
2019-05-17T15:59:26.456Z,11.00
2019-05-17T16:07:44.299Z,7.87
2019-05-17T16:16:01.744Z,10.50
2019-05-17T16:24:19.261Z,12.70
2019-05-17T16:32:36.696Z,11.80
2019-05-17T16:40:54.135Z,6.40
2019-05-17T16:49:11.748Z,12.83
2019-05-17T16:57:32.617Z,7.83
2019-05-17T17:05:50.218Z,6.53
2019-05-17T17:22:48.455Z,9.93
2019-05-17T17:31:07.613Z,10.97
2019-05-17T17:39:27.046Z,9.05
2019-05-17T17:47:44.296Z,11.57
2019-05-17T17:56:35.081Z,11.83
2019-05-17T18:04:52.597Z,12.60
2019-05-17T18:13:10.547Z,13.22
2019-05-17T18:21:28.011Z,10.20
2019-05-17T18:29:45.464Z,14.70
2019-05-17T18:38:03.160Z,14.00
2019-05-17T18:46:20.986Z,12.43
2019-05-17T18:54:38.520Z,12.53
2019-05-17T19:02:56.104Z,16.87
2019-05-17T19:11:13.563Z,15.50
2019-05-17T19:19:31.022Z,13.70
2019-05-17T19:27:48.546Z,17.07
2019-05-17T19:36:06.172Z,17.23
2019-05-17T19:44:23.613Z,15.47
2019-05-17T19:52:41.190Z,17.17
2019-05-17T20:00:58.766Z,17.10
2019-05-17T20:09:16.219Z,25.10
2019-05-17T20:17:33.660Z,29.60
2019-05-17T20:25:51.146Z,19.05
2019-05-17T20:34:08.667Z,22.30
2019-05-17T20:42:26.165Z,20.95
2019-05-17T20:50:43.627Z,23.30
2019-05-17T20:59:01.508Z,25.88
2019-05-17T21:07:18.953Z,22.90
2019-05-17T21:15:47.508Z,21.00
2019-05-17T21:23:55.526Z,23.10
2019-05-17T21:32:12.987Z,23.43
2019-05-17T21:40:30.445Z,19.60
2019-05-17T21:48:47.872Z,22.37
2019-05-17T21:57:05.331Z,22.57
2019-05-17T22:05:22.926Z,27.37
2019-05-17T22:13:40.477Z,23.03
2019-05-17T22:21:57.908Z,20.37
2019-05-17T22:30:15.475Z,21.47
2019-05-17T22:38:32.923Z,27.20
2019-05-17T22:46:50.388Z,25.80
2019-05-17T22:55:08.055Z,24.63
2019-05-17T23:03:25.524Z,25.03
2019-05-17T23:11:42.959Z,27.20
2019-05-17T23:20:00.470Z,42.27
2019-05-17T23:28:17.969Z,29.03
2019-05-17T23:36:35.671Z,27.10
2019-05-17T23:44:53.211Z,31.40
2019-05-17T23:53:11.055Z,30.03
